createdAt,value
2022-09-11T00:01:17.025Z,63.61
2022-09-11T00:03:45.477Z,63.88
2022-09-11T00:06:14.513Z,64.15
2022-09-11T00:08:41.901Z,63.87
2022-09-11T00:11:21.011Z,64.49
2022-09-11T00:13:50.115Z,64.33
2022-09-11T00:16:26.933Z,64.84
2022-09-11T00:18:55.243Z,64.59
2022-09-11T00:21:21.873Z,64.41
2022-09-11T00:23:51.656Z,64.34
2022-09-11T00:26:19.716Z,64.34
2022-09-11T00:28:46.716Z,64.78
2022-09-11T00:31:16.102Z,64.94
2022-09-11T00:33:43.374Z,64.73
2022-09-11T00:36:18.299Z,65.20
2022-09-11T00:38:46.353Z,65.04
2022-09-11T00:41:17.010Z,65.38
2022-09-11T00:44:13.659Z,66.20
2022-09-11T00:46:50.365Z,66.14
2022-09-11T00:49:26.974Z,66.08
2022-09-11T00:52:00.821Z,66.15
2022-09-11T00:54:31.707Z,66.23
2022-09-11T00:57:03.086Z,66.30
2022-09-11T00:59:31.674Z,66.12
2022-09-11T01:01:58.431Z,65.98
2022-09-11T01:04:25.423Z,66.10
2022-09-11T01:06:56.530Z,66.61
2022-09-11T01:09:29.228Z,67.07
2022-09-11T01:12:07.084Z,67.00
2022-09-11T01:14:41.950Z,66.90
2022-09-11T01:17:18.194Z,66.94
2022-09-11T01:20:05.403Z,66.54
2022-09-11T01:22:45.997Z,66.91
2022-09-11T01:25:52.084Z,66.94
2022-09-11T01:28:28.810Z,66.89
2022-09-11T01:31:02.570Z,66.55
2022-09-11T01:33:46.688Z,66.87
2022-09-11T01:36:22.566Z,67.01
2022-09-11T01:39:07.337Z,66.79
2022-09-11T01:41:53.261Z,66.72
2022-09-11T01:44:57.463Z,66.78
2022-09-11T01:47:24.321Z,66.38
2022-09-11T01:50:03.071Z,66.87
2022-09-11T01:52:35.244Z,66.57
2022-09-11T01:55:09.764Z,66.29
2022-09-11T01:57:48.625Z,66.87
2022-09-11T02:00:15.484Z,66.16
2022-09-11T02:03:15.981Z,67.01
2022-09-11T02:05:49.233Z,66.68
2022-09-11T02:08:22.446Z,67.06
2022-09-11T02:11:03.811Z,67.39
2022-09-11T02:13:37.128Z,66.82
2022-09-11T02:16:21.732Z,67.14
2022-09-11T02:18:58.535Z,67.16
2022-09-11T02:21:25.905Z,66.34
2022-09-11T02:23:52.412Z,66.62
2022-09-11T02:26:22.085Z,66.72
2022-09-11T02:28:48.579Z,66.61
2022-09-11T02:31:16.130Z,66.50
2022-09-11T02:33:43.263Z,66.56
2022-09-11T02:36:28.381Z,67.37
2022-09-11T02:39:13.752Z,67.03
2022-09-11T02:42:07.225Z,66.88
2022-09-11T02:44:33.935Z,66.29
2022-09-11T02:47:31.153Z,66.75
2022-09-11T02:50:08.121Z,66.57
2022-09-11T02:53:12.544Z,66.84
2022-09-11T02:56:01.535Z,66.75
2022-09-11T02:58:34.798Z,66.54
2022-09-11T03:01:02.696Z,66.74
2022-09-11T03:03:37.947Z,67.38
2022-09-11T03:06:04.913Z,67.04
2022-09-11T03:08:32.332Z,66.83
2022-09-11T03:10:58.876Z,66.86
2022-09-11T03:13:25.357Z,66.57
2022-09-11T03:15:52.001Z,67.01
2022-09-11T03:18:18.489Z,66.89
2022-09-11T03:20:47.992Z,67.13
2022-09-11T03:23:14.463Z,67.27
2022-09-11T03:25:41.401Z,67.25
2022-09-11T03:28:08.028Z,67.13
2022-09-11T03:30:34.916Z,67.26
2022-09-11T03:33:01.564Z,67.23
2022-09-11T03:35:28.695Z,67.05
2022-09-11T03:37:55.692Z,67.16
2022-09-11T03:40:23.331Z,67.16
2022-09-11T03:42:49.858Z,67.15
2022-09-11T03:45:16.459Z,67.27
2022-09-11T03:47:42.982Z,67.03
2022-09-11T03:50:11.200Z,67.00
2022-09-11T03:52:38.084Z,67.13
2022-09-11T03:55:06.016Z,67.00
2022-09-11T03:57:36.616Z,67.73
2022-09-11T04:00:04.198Z,66.95
2022-09-11T04:02:31.798Z,67.42
2022-09-11T04:04:58.328Z,67.30
2022-09-11T04:07:25.216Z,67.19
2022-09-11T04:09:51.886Z,67.35
2022-09-11T04:12:19.547Z,67.58
2022-09-11T04:14:46.250Z,67.29
2022-09-11T04:17:12.768Z,67.08
2022-09-11T04:19:39.307Z,67.30
2022-09-11T04:22:05.909Z,67.58
2022-09-11T04:24:32.498Z,67.44
2022-09-11T04:27:01.063Z,67.44
2022-09-11T04:29:28.640Z,67.43
2022-09-11T04:31:56.214Z,67.47
2022-09-11T04:34:22.806Z,67.60
2022-09-11T04:36:49.334Z,67.68
2022-09-11T04:39:16.738Z,67.45
2022-09-11T04:41:44.429Z,67.58
2022-09-11T04:44:11.108Z,67.27
2022-09-11T04:46:37.599Z,67.68
2022-09-11T04:49:04.137Z,67.65
2022-09-11T04:51:34.872Z,67.69
2022-09-11T04:54:02.472Z,67.97
2022-09-11T04:56:32.490Z,68.13
2022-09-11T04:59:02.199Z,67.89
2022-09-11T05:01:30.641Z,68.16
2022-09-11T05:03:57.177Z,67.84
2022-09-11T05:06:24.095Z,67.90
2022-09-11T05:08:51.086Z,67.84
2022-09-11T05:11:20.882Z,68.21
2022-09-11T05:13:48.569Z,68.13
2022-09-11T05:16:17.402Z,68.15
2022-09-11T05:18:51.970Z,68.58
2022-09-11T05:21:19.270Z,67.97
2022-09-11T05:23:51.533Z,68.63
2022-09-11T05:26:21.104Z,68.32
2022-09-11T05:28:47.886Z,67.88
2022-09-11T05:31:18.643Z,68.50
2022-09-11T05:33:46.272Z,68.12
2022-09-11T05:36:14.483Z,68.08
2022-09-11T05:38:41.728Z,68.59
2022-09-11T05:41:11.739Z,68.17
2022-09-11T05:43:39.660Z,68.40
2022-09-11T05:46:07.766Z,68.57
2022-09-11T05:48:36.790Z,68.55
2022-09-11T05:51:10.635Z,68.74
2022-09-11T05:53:38.050Z,68.65
2022-09-11T05:56:19.739Z,69.04
2022-09-11T05:58:47.989Z,68.55
2022-09-11T06:01:23.513Z,68.72
2022-09-11T06:03:50.752Z,68.90
2022-09-11T06:06:19.526Z,69.00
2022-09-11T06:08:47.469Z,68.58
2022-09-11T06:11:16.630Z,68.65
2022-09-11T06:13:46.386Z,68.95
2022-09-11T06:16:18.255Z,68.70
2022-09-11T06:18:49.280Z,68.49
2022-09-11T06:21:20.981Z,68.50
2022-09-11T06:23:52.087Z,68.67
2022-09-11T06:26:26.656Z,68.56
2022-09-11T06:28:54.067Z,68.61
2022-09-11T06:31:24.363Z,68.49
2022-09-11T06:33:51.382Z,68.72
2022-09-11T06:36:20.224Z,69.00
2022-09-11T06:38:46.913Z,68.78
2022-09-11T06:41:15.856Z,68.73
2022-09-11T06:43:43.405Z,68.48
2022-09-11T06:46:14.955Z,68.71
2022-09-11T06:48:43.305Z,68.27
2022-09-11T06:51:13.188Z,68.77
2022-09-11T06:53:41.182Z,68.35
2022-09-11T06:56:12.369Z,68.26
2022-09-11T06:58:40.091Z,68.31
2022-09-11T07:01:10.194Z,68.10
2022-09-11T07:03:37.507Z,67.95
2022-09-11T07:06:06.631Z,67.75
2022-09-11T07:08:33.151Z,67.59
2022-09-11T07:11:07.064Z,68.02
2022-09-11T07:13:37.485Z,67.43
2022-09-11T07:16:09.948Z,67.60
2022-09-11T07:18:41.298Z,67.54
2022-09-11T07:21:12.071Z,67.70
2022-09-11T07:23:40.459Z,67.85
2022-09-11T07:26:10.013Z,67.86
2022-09-11T07:28:37.822Z,67.64
2022-09-11T07:31:05.151Z,67.69
2022-09-11T07:33:31.669Z,67.86
2022-09-11T07:35:58.226Z,67.85
2022-09-11T07:38:24.763Z,67.70
2022-09-11T07:40:54.532Z,67.90
2022-09-11T07:43:21.119Z,67.93
2022-09-11T07:45:48.979Z,67.54
2022-09-11T07:48:15.539Z,67.49
2022-09-11T07:50:42.033Z,67.38
2022-09-11T07:53:08.517Z,67.02
2022-09-11T07:55:35.022Z,67.22
2022-09-11T07:58:01.975Z,67.11
2022-09-11T08:00:28.499Z,66.93
2022-09-11T08:02:56.631Z,67.26
2022-09-11T08:05:23.200Z,67.14
2022-09-11T08:07:49.679Z,67.34
2022-09-11T08:10:27.378Z,67.26
2022-09-11T08:12:59.216Z,67.13
2022-09-11T08:15:27.230Z,67.16
2022-09-11T08:17:54.351Z,67.11
2022-09-11T08:20:21.725Z,66.97
2022-09-11T08:22:48.180Z,66.64
2022-09-11T08:25:14.764Z,66.88
2022-09-11T08:27:41.215Z,67.03
2022-09-11T08:30:08.586Z,67.39
2022-09-11T08:32:35.128Z,67.13
2022-09-11T08:35:01.626Z,67.27
2022-09-11T08:37:28.422Z,67.30
2022-09-11T08:39:55.148Z,67.04
2022-09-11T08:42:21.874Z,66.94
2022-09-11T08:44:55.573Z,66.68
2022-09-11T08:47:26.342Z,66.68
2022-09-11T08:50:12.207Z,66.24
2022-09-11T08:52:38.758Z,66.49
2022-09-11T08:55:06.904Z,65.84
2022-09-11T08:57:50.781Z,65.93
2022-09-11T09:00:21.316Z,65.92
2022-09-11T09:03:09.058Z,65.67
2022-09-11T09:05:53.731Z,65.63
2022-09-11T09:08:51.198Z,66.04
2022-09-11T09:11:19.177Z,66.13
2022-09-11T09:13:48.764Z,66.13
2022-09-11T09:16:28.931Z,66.12
2022-09-11T09:19:14.812Z,66.13
2022-09-11T09:21:55.299Z,65.93
2022-09-11T09:24:23.300Z,66.53
2022-09-11T09:26:53.032Z,65.97
2022-09-11T09:29:24.700Z,66.28
2022-09-11T09:31:57.463Z,66.26
2022-09-11T09:34:27.840Z,66.09
2022-09-11T09:37:13.102Z,65.83
2022-09-11T09:39:40.017Z,66.15
2022-09-11T09:42:20.932Z,65.89
2022-09-11T09:45:24.806Z,65.96
2022-09-11T09:47:51.285Z,65.83
2022-09-11T09:50:21.584Z,65.58
2022-09-11T09:52:49.897Z,66.33
2022-09-11T09:55:19.388Z,66.32
2022-09-11T09:57:46.018Z,65.54
2022-09-11T10:00:17.850Z,65.62
2022-09-11T10:02:57.254Z,65.01
2022-09-11T10:05:44.013Z,64.76
2022-09-11T10:08:32.033Z,64.54
2022-09-11T10:11:04.772Z,64.17
2022-09-11T10:13:34.107Z,64.39
2022-09-11T10:16:04.052Z,64.32
2022-09-11T10:18:30.862Z,64.39
2022-09-11T10:21:12.380Z,63.80
2022-09-11T10:23:54.669Z,63.53
2022-09-11T10:26:34.173Z,63.52
2022-09-11T10:29:15.671Z,62.49
2022-09-11T10:31:49.870Z,62.48
2022-09-11T10:34:22.369Z,63.71
2022-09-11T10:37:23.617Z,63.78
2022-09-11T10:39:51.162Z,64.53
2022-09-11T10:42:22.254Z,64.78
2022-09-11T10:44:51.837Z,64.24
2022-09-11T10:47:22.185Z,63.27
2022-09-11T10:49:49.818Z,64.68
2022-09-11T10:52:18.931Z,63.06
2022-09-11T10:54:52.247Z,61.04
2022-09-11T10:57:27.934Z,59.41
2022-09-11T11:00:09.582Z,62.80
2022-09-11T11:02:40.113Z,63.17
2022-09-11T11:05:26.211Z,61.92
2022-09-11T11:08:20.029Z,61.39
2022-09-11T11:11:11.177Z,62.19
2022-09-11T11:13:55.710Z,61.78
2022-09-11T11:16:27.280Z,58.69
2022-09-11T11:19:18.909Z,57.97
2022-09-11T11:21:54.689Z,59.50
2022-09-11T11:24:22.176Z,58.51
2022-09-11T11:26:59.812Z,54.59
2022-09-11T11:29:52.498Z,53.35
2022-09-11T11:32:47.656Z,52.08
2022-09-11T11:35:22.236Z,50.58
2022-09-11T11:37:53.188Z,50.67
2022-09-11T11:40:32.414Z,47.35
2022-09-11T11:43:11.561Z,46.81
2022-09-11T11:46:13.635Z,47.09
2022-09-11T11:48:49.207Z,45.60
2022-09-11T11:51:19.531Z,44.34
2022-09-11T11:54:02.910Z,43.48
2022-09-11T11:56:39.253Z,42.47
2022-09-11T11:59:12.188Z,43.37
2022-09-11T12:01:56.045Z,41.37
2022-09-11T12:04:43.751Z,40.06
2022-09-11T12:07:17.869Z,38.86
2022-09-11T12:09:53.618Z,38.20
2022-09-11T12:12:23.125Z,37.31
2022-09-11T12:15:03.507Z,37.14
2022-09-11T12:17:33.126Z,37.52
2022-09-11T12:20:11.937Z,37.33
2022-09-11T12:22:46.923Z,36.05
2022-09-11T12:25:19.430Z,36.75
2022-09-11T12:27:48.984Z,36.78
2022-09-11T12:30:18.374Z,35.96
2022-09-11T12:32:51.246Z,36.43
2022-09-11T12:35:20.227Z,36.58
2022-09-11T12:37:58.049Z,37.53
2022-09-11T12:40:39.057Z,38.09
2022-09-11T12:43:33.172Z,38.93
2022-09-11T12:45:59.930Z,37.84
2022-09-11T12:48:39.578Z,37.60
2022-09-11T12:51:23.957Z,38.74
2022-09-11T12:54:03.606Z,40.50
2022-09-11T12:56:37.073Z,40.00
2022-09-11T12:59:09.375Z,41.10
2022-09-11T13:01:38.834Z,39.82
2022-09-11T13:04:11.213Z,39.58
2022-09-11T13:07:05.415Z,40.39
2022-09-11T13:09:38.121Z,38.87
2022-09-11T13:12:23.479Z,39.93
2022-09-11T13:14:52.131Z,38.89
2022-09-11T13:17:30.502Z,36.81
2022-09-11T13:20:19.871Z,37.10
2022-09-11T13:22:48.923Z,36.68
2022-09-11T13:25:21.073Z,36.10
2022-09-11T13:27:50.804Z,36.75
2022-09-11T13:30:21.721Z,37.14
2022-09-11T13:32:58.766Z,37.89
2022-09-11T13:35:27.727Z,39.37
2022-09-11T13:38:10.138Z,40.37
2022-09-11T13:40:47.672Z,39.95
2022-09-11T13:43:30.791Z,40.66
2022-09-11T13:46:16.530Z,39.65
2022-09-11T13:48:44.460Z,40.18
2022-09-11T13:51:16.951Z,40.02
2022-09-11T13:53:45.460Z,42.91
2022-09-11T13:56:38.442Z,40.21
2022-09-11T13:59:26.959Z,39.35
2022-09-11T14:02:00.868Z,36.81
2022-09-11T14:04:29.253Z,35.83
2022-09-11T14:06:56.173Z,37.14
2022-09-11T14:09:23.055Z,36.89
2022-09-11T14:11:50.142Z,37.42
2022-09-11T14:14:24.895Z,36.20
2022-09-11T14:17:01.207Z,35.86
2022-09-11T14:19:31.441Z,36.02
2022-09-11T14:21:58.567Z,34.69
2022-09-11T14:24:26.470Z,33.63
2022-09-11T14:26:53.627Z,34.06
2022-09-11T14:29:33.101Z,33.07
2022-09-11T14:32:39.110Z,33.63
2022-09-11T14:35:08.468Z,31.84
2022-09-11T14:37:41.205Z,30.38
2022-09-11T14:40:15.419Z,30.76
2022-09-11T14:42:43.080Z,31.22
2022-09-11T14:45:11.147Z,30.63
2022-09-11T14:47:38.166Z,30.16
2022-09-11T14:50:11.972Z,29.57
2022-09-11T14:52:40.759Z,29.99
2022-09-11T14:55:07.539Z,29.47
2022-09-11T14:57:34.881Z,29.13
2022-09-11T15:00:01.954Z,28.88
2022-09-11T15:02:29.233Z,28.62
2022-09-11T15:04:57.710Z,28.61
2022-09-11T15:07:25.009Z,28.14
2022-09-11T15:09:55.414Z,27.14
2022-09-11T15:12:22.720Z,27.34
2022-09-11T15:14:58.500Z,27.34
2022-09-11T15:17:25.800Z,27.48
2022-09-11T15:19:53.455Z,27.89
2022-09-11T15:22:20.005Z,28.42
2022-09-11T15:24:47.208Z,28.66
2022-09-11T15:27:15.058Z,30.35
2022-09-11T15:29:42.563Z,30.62
2022-09-11T15:32:09.844Z,31.70
2022-09-11T15:34:38.748Z,32.44
2022-09-11T15:37:06.016Z,33.84
2022-09-11T15:39:34.011Z,33.34
2022-09-11T15:42:02.067Z,32.41
2022-09-11T15:44:29.261Z,31.76
2022-09-11T15:46:57.764Z,32.17
2022-09-11T15:49:24.969Z,31.73
2022-09-11T15:51:53.828Z,32.46
2022-09-11T15:54:23.239Z,32.98
2022-09-11T15:56:51.082Z,32.49
2022-09-11T15:59:17.719Z,33.11
2022-09-11T16:01:45.307Z,33.71
2022-09-11T16:04:14.506Z,35.03
2022-09-11T16:06:43.487Z,35.15
2022-09-11T16:09:13.942Z,35.85
2022-09-11T16:11:41.022Z,36.69
2022-09-11T16:14:08.877Z,36.62
2022-09-11T16:16:35.583Z,36.57
2022-09-11T16:19:02.072Z,36.88
2022-09-11T16:21:28.871Z,38.11
2022-09-11T16:24:00.656Z,38.04
2022-09-11T16:26:29.143Z,38.53
2022-09-11T16:28:55.651Z,38.35
2022-09-11T16:31:22.210Z,38.25
2022-09-11T16:33:49.438Z,38.67
2022-09-11T16:36:19.356Z,39.15
2022-09-11T16:38:46.788Z,39.27
2022-09-11T16:41:16.661Z,38.92
2022-09-11T16:43:45.444Z,39.94
2022-09-11T16:46:15.445Z,40.03
2022-09-11T16:48:44.156Z,40.58
2022-09-11T16:51:11.922Z,40.53
2022-09-11T16:53:38.727Z,40.59
2022-09-11T16:56:10.417Z,41.26
2022-09-11T16:58:37.949Z,41.68
2022-09-11T17:01:10.271Z,41.47
2022-09-11T17:03:41.373Z,41.55
2022-09-11T17:06:08.757Z,41.16
2022-09-11T17:08:36.695Z,41.33
2022-09-11T17:11:04.521Z,41.47
2022-09-11T17:13:31.314Z,41.64
2022-09-11T17:16:05.658Z,41.93
2022-09-11T17:18:33.289Z,42.06
2022-09-11T17:21:04.925Z,42.49
2022-09-11T17:23:32.979Z,42.48
2022-09-11T17:25:59.936Z,42.55
2022-09-11T17:28:26.755Z,42.25
2022-09-11T17:30:53.374Z,42.51
2022-09-11T17:33:19.910Z,42.92
2022-09-11T17:35:47.306Z,43.22
2022-09-11T17:38:13.847Z,43.34
2022-09-11T17:40:41.299Z,43.32
2022-09-11T17:43:07.800Z,43.55
2022-09-11T17:45:34.318Z,43.64
2022-09-11T17:48:01.674Z,43.77
2022-09-11T17:50:28.254Z,44.51
2022-09-11T17:52:54.765Z,44.66
2022-09-11T17:55:21.638Z,44.83
2022-09-11T17:57:54.689Z,44.81
2022-09-11T18:00:21.222Z,44.85
2022-09-11T18:02:50.121Z,45.28
2022-09-11T18:05:16.657Z,45.31
2022-09-11T18:07:43.200Z,45.46
2022-09-11T18:10:09.866Z,45.46
2022-09-11T18:12:36.437Z,46.08
2022-09-11T18:15:03.798Z,46.08
2022-09-11T18:17:30.318Z,46.12
2022-09-11T18:19:56.874Z,46.59
2022-09-11T18:22:23.409Z,46.23
2022-09-11T18:24:50.926Z,47.00
2022-09-11T18:27:19.880Z,46.83
2022-09-11T18:29:46.758Z,46.75
2022-09-11T18:32:13.292Z,46.85
2022-09-11T18:34:39.915Z,46.91
2022-09-11T18:37:07.823Z,46.68
2022-09-11T18:39:34.580Z,46.89
2022-09-11T18:42:01.941Z,47.21
2022-09-11T18:44:28.834Z,47.69
2022-09-11T18:46:55.568Z,47.57
2022-09-11T18:49:22.800Z,47.44
2022-09-11T18:51:49.607Z,47.32
2022-09-11T18:54:20.176Z,47.53
2022-09-11T18:56:48.649Z,47.85
2022-09-11T18:59:15.678Z,47.94
2022-09-11T19:01:42.347Z,47.80
2022-09-11T19:04:11.252Z,47.91
2022-09-11T19:06:39.486Z,48.30
2022-09-11T19:09:08.046Z,47.98
2022-09-11T19:11:34.654Z,48.31
2022-09-11T19:14:04.210Z,48.70
2022-09-11T19:16:30.800Z,48.82
2022-09-11T19:18:57.338Z,48.70
2022-09-11T19:21:24.529Z,48.73
2022-09-11T19:23:55.957Z,49.42
2022-09-11T19:26:25.434Z,49.15
2022-09-11T19:28:52.391Z,49.11
2022-09-11T19:31:29.830Z,49.43
2022-09-11T19:34:00.206Z,49.66
2022-09-11T19:36:29.523Z,49.72
2022-09-11T19:39:00.613Z,49.86
2022-09-11T19:41:33.271Z,50.33
2022-09-11T19:44:02.189Z,50.08
2022-09-11T19:46:30.702Z,49.93
2022-09-11T19:49:00.538Z,50.25
2022-09-11T19:51:32.935Z,50.31
2022-09-11T19:54:00.817Z,50.41
2022-09-11T19:56:27.689Z,50.52
2022-09-11T19:58:54.937Z,50.60
2022-09-11T20:01:23.220Z,50.93
2022-09-11T20:03:51.196Z,51.00
2022-09-11T20:06:18.909Z,51.09
2022-09-11T20:08:47.475Z,51.46
2022-09-11T20:11:20.751Z,51.77
2022-09-11T20:13:48.267Z,51.39
2022-09-11T20:16:18.094Z,51.77
2022-09-11T20:18:44.754Z,51.57
2022-09-11T20:21:16.488Z,52.25
2022-09-11T20:23:44.541Z,51.72
2022-09-11T20:26:17.382Z,51.94
2022-09-11T20:28:45.265Z,51.67
2022-09-11T20:31:21.482Z,52.24
2022-09-11T20:33:51.570Z,51.71
2022-09-11T20:36:19.477Z,52.22
2022-09-11T20:38:53.823Z,52.79
2022-09-11T20:41:27.406Z,52.32
2022-09-11T20:43:54.016Z,52.51
2022-09-11T20:46:21.059Z,52.55
2022-09-11T20:48:50.108Z,52.58
2022-09-11T20:51:17.270Z,52.77
2022-09-11T20:53:46.688Z,52.87
2022-09-11T20:56:15.745Z,52.88
2022-09-11T20:58:42.792Z,52.75
2022-09-11T21:01:13.145Z,53.37
2022-09-11T21:03:44.704Z,53.53
2022-09-11T21:06:11.322Z,53.41
2022-09-11T21:08:37.920Z,53.36
2022-09-11T21:11:04.917Z,53.45
2022-09-11T21:13:35.930Z,53.99
2022-09-11T21:16:09.508Z,54.27
2022-09-11T21:18:36.527Z,53.80
2022-09-11T21:21:03.709Z,53.94
2022-09-11T21:23:30.263Z,53.75
2022-09-11T21:25:57.137Z,53.87
2022-09-11T21:28:23.905Z,53.77
2022-09-11T21:30:51.027Z,54.18
2022-09-11T21:33:18.244Z,53.62
2022-09-11T21:35:50.168Z,54.42
2022-09-11T21:38:16.674Z,53.89
2022-09-11T21:40:43.201Z,53.76
2022-09-11T21:43:09.720Z,53.69
2022-09-11T21:45:36.230Z,53.72
2022-09-11T21:48:03.132Z,53.55
2022-09-11T21:50:29.606Z,54.10
2022-09-11T21:52:56.102Z,53.53
2022-09-11T21:55:22.689Z,53.70
2022-09-11T21:57:49.269Z,54.17
2022-09-11T22:00:15.864Z,53.79
2022-09-11T22:02:42.439Z,54.11
2022-09-11T22:05:09.537Z,54.26
2022-09-11T22:07:36.253Z,54.31
2022-09-11T22:10:04.692Z,54.69
2022-09-11T22:12:31.687Z,54.53
2022-09-11T22:14:58.586Z,54.83
2022-09-11T22:17:25.161Z,54.64
2022-09-11T22:19:51.659Z,54.97
2022-09-11T22:22:18.239Z,54.95
2022-09-11T22:24:44.751Z,55.59
2022-09-11T22:27:12.102Z,55.25
2022-09-11T22:29:39.135Z,55.16
2022-09-11T22:32:06.575Z,55.00
2022-09-11T22:34:37.191Z,55.35
2022-09-11T22:37:04.463Z,55.21
2022-09-11T22:39:31.913Z,55.12
2022-09-11T22:41:59.714Z,55.30
2022-09-11T22:44:26.651Z,55.77
2022-09-11T22:46:53.438Z,56.09
2022-09-11T22:49:20.011Z,56.20
2022-09-11T22:51:46.612Z,56.22
2022-09-11T22:54:14.217Z,56.66
2022-09-11T22:56:40.841Z,56.34
2022-09-11T22:59:08.302Z,56.48
2022-09-11T23:01:35.162Z,56.53
2022-09-11T23:04:01.883Z,56.27
2022-09-11T23:06:47.031Z,56.68
2022-09-11T23:09:16.954Z,56.59
2022-09-11T23:11:45.417Z,56.49
2022-09-11T23:14:14.714Z,57.04
2022-09-11T23:16:41.712Z,56.74
2022-09-11T23:19:11.715Z,56.74
2022-09-11T23:21:38.235Z,56.47
2022-09-11T23:24:06.235Z,57.07
2022-09-11T23:26:33.681Z,57.04
2022-09-11T23:29:00.658Z,56.87
2022-09-11T23:31:32.637Z,57.68
2022-09-11T23:34:02.074Z,57.30
2022-09-11T23:36:30.341Z,57.37
2022-09-11T23:38:57.427Z,57.28
2022-09-11T23:41:24.689Z,57.38
2022-09-11T23:43:51.525Z,57.14
2022-09-11T23:46:18.623Z,57.24
2022-09-11T23:48:45.926Z,57.23
2022-09-11T23:51:12.964Z,57.62
2022-09-11T23:53:43.393Z,57.74
2022-09-11T23:56:10.997Z,57.70
2022-09-11T23:58:40.125Z,57.89
